Aviation Digital Data Service (ADDS)

Output produced by METARs form (1814 UTC 19 August 2019)
found at http://www.aviationweather.gov/metar/data/
 
METAR text: EKCH 191750Z AUTO 25006KT 9999 SCT100/// 18/13 Q1014 NOSIG
Conditions at: EKCH (COPENHAGEN/KASTR, DK) observed 1750 UTC 19 August 2019
Temperature: 18.0°C (64°F)
Dewpoint: 13.0°C (55°F) [RH = 73%]
Pressure (altimeter): 29.94 inches Hg (1014.0 mb)
Winds: from the WSW (250 degrees) at 7 MPH (6 knots; 3.1 m/s)
Visibility: 6 or more miles (10+ km)
Ceiling: at least 12,000 feet AGL
Clouds: scattered clouds at 10000 feet AGL
Weather: no significant weather observed at this time

METAR text: EKCH 191720Z AUTO 26010KT 9999 BKN089/// 19/12 Q1014 TEMPO FEW020CB
Conditions at: EKCH (COPENHAGEN/KASTR, DK) observed 1720 UTC 19 August 2019
Temperature: 19.0°C (66°F)
Dewpoint: 12.0°C (54°F) [RH = 64%]
Pressure (altimeter): 29.94 inches Hg (1014.0 mb)
Winds: from the W (260 degrees) at 12 MPH (10 knots; 5.1 m/s)
Visibility: 6 or more miles (10+ km)
Ceiling: 8900 feet AGL
Clouds: broken clouds at 8900 feet AGL
Weather: no significant weather observed at this time

METAR text: EKCH 191650Z 27012KT 9999 FEW020CB SCT039 BKN090 18/12 Q1014 TEMPO SHRA
Conditions at: EKCH (COPENHAGEN/KASTR, DK) observed 1650 UTC 19 August 2019
Temperature: 18.0°C (64°F)
Dewpoint: 12.0°C (54°F) [RH = 68%]
Pressure (altimeter): 29.94 inches Hg (1014.0 mb)
Winds: from the W (270 degrees) at 14 MPH (12 knots; 6.2 m/s)
Visibility: 6 or more miles (10+ km)
Ceiling: 9000 feet AGL
Clouds: few clouds at 2000 feet AGL
scattered clouds at 3900 feet AGL
broken clouds at 9000 feet AGL
Weather: no significant weather observed at this time

METAR text: EKCH 191620Z 23015KT 9999 VCSH FEW020CB SCT090 19/13 Q1014 TEMPO SHRA
Conditions at: EKCH (COPENHAGEN/KASTR, DK) observed 1620 UTC 19 August 2019
Temperature: 19.0°C (66°F)
Dewpoint: 13.0°C (55°F) [RH = 68%]
Pressure (altimeter): 29.94 inches Hg (1014.0 mb)
Winds: from the SW (230 degrees) at 17 MPH (15 knots; 7.7 m/s)
Visibility: 6 or more miles (10+ km)
Ceiling: at least 12,000 feet AGL
Clouds: few clouds at 2000 feet AGL
scattered clouds at 9000 feet AGL
Weather: VCSH  (showers in vicinity)

METAR text: EKCH 191550Z AUTO 24016KT 9999 FEW098/// 21/12 Q1013 TEMPO SHRA SCT020CB
Conditions at: EKCH (COPENHAGEN/KASTR, DK) observed 1550 UTC 19 August 2019
Temperature: 21.0°C (70°F)
Dewpoint: 12.0°C (54°F) [RH = 56%]
Pressure (altimeter): 29.91 inches Hg (1013.0 mb)
Winds: from the WSW (240 degrees) at 18 MPH (16 knots; 8.2 m/s)
Visibility: 6 or more miles (10+ km)
Ceiling: at least 12,000 feet AGL
Clouds: few clouds at 9800 feet AGL
Weather: no significant weather observed at this time

METAR text: EKCH 191520Z AUTO 23016KT 9999 NCD 21/13 Q1013 TEMPO SHRA SCT020CB
Conditions at: EKCH (COPENHAGEN/KASTR, DK) observed 1520 UTC 19 August 2019
Temperature: 21.0°C (70°F)
Dewpoint: 13.0°C (55°F) [RH = 60%]
Pressure (altimeter): 29.91 inches Hg (1013.0 mb)
Winds: from the SW (230 degrees) at 18 MPH (16 knots; 8.2 m/s)
Visibility: 6 or more miles (10+ km)
Ceiling: at least 12,000 feet AGL
Clouds: sky clear below 12,000 feet AGL
Weather: no significant weather observed at this time

METAR text: EKCH 191450Z AUTO 23017KT 9999 FEW095/// 21/13 Q1013 TEMPO SHRA SCT020CB
Conditions at: EKCH (COPENHAGEN/KASTR, DK) observed 1450 UTC 19 August 2019
Temperature: 21.0°C (70°F)
Dewpoint: 13.0°C (55°F) [RH = 60%]
Pressure (altimeter): 29.91 inches Hg (1013.0 mb)
Winds: from the SW (230 degrees) at 20 MPH (17 knots; 8.7 m/s)
Visibility: 6 or more miles (10+ km)
Ceiling: at least 12,000 feet AGL
Clouds: few clouds at 9500 feet AGL
Weather: no significant weather observed at this time

METAR text: EKCH 191420Z AUTO 23016KT 9999 FEW033/// 21/13 Q1013 TEMPO FEW020CB
Conditions at: EKCH (COPENHAGEN/KASTR, DK) observed 1420 UTC 19 August 2019
Temperature: 21.0°C (70°F)
Dewpoint: 13.0°C (55°F) [RH = 60%]
Pressure (altimeter): 29.91 inches Hg (1013.0 mb)
Winds: from the SW (230 degrees) at 18 MPH (16 knots; 8.2 m/s)
Visibility: 6 or more miles (10+ km)
Ceiling: at least 12,000 feet AGL
Clouds: few clouds at 3300 feet AGL
Weather: no significant weather observed at this time

METAR text: EKCH 191350Z AUTO 23017KT 9999 FEW092/// 21/12 Q1013 TEMPO FEW020CB
Conditions at: EKCH (COPENHAGEN/KASTR, DK) observed 1350 UTC 19 August 2019
Temperature: 21.0°C (70°F)
Dewpoint: 12.0°C (54°F) [RH = 56%]
Pressure (altimeter): 29.91 inches Hg (1013.0 mb)
Winds: from the SW (230 degrees) at 20 MPH (17 knots; 8.7 m/s)
Visibility: 6 or more miles (10+ km)
Ceiling: at least 12,000 feet AGL
Clouds: few clouds at 9200 feet AGL
Weather: no significant weather observed at this time

METAR text: EKCH 191320Z AUTO 23017KT 9999 SCT091/// 21/14 Q1012 TEMPO FEW020CB
Conditions at: EKCH (COPENHAGEN/KASTR, DK) observed 1320 UTC 19 August 2019
Temperature: 21.0°C (70°F)
Dewpoint: 14.0°C (57°F) [RH = 64%]
Pressure (altimeter): 29.88 inches Hg (1012.0 mb)
Winds: from the SW (230 degrees) at 20 MPH (17 knots; 8.7 m/s)
Visibility: 6 or more miles (10+ km)
Ceiling: at least 12,000 feet AGL
Clouds: scattered clouds at 9100 feet AGL
Weather: no significant weather observed at this time

METAR text: EKCH 191250Z AUTO 23017KT 9999 FEW031/// 21/13 Q1012 TEMPO FEW020CB
Conditions at: EKCH (COPENHAGEN/KASTR, DK) observed 1250 UTC 19 August 2019
Temperature: 21.0°C (70°F)
Dewpoint: 13.0°C (55°F) [RH = 60%]
Pressure (altimeter): 29.88 inches Hg (1012.0 mb)
Winds: from the SW (230 degrees) at 20 MPH (17 knots; 8.7 m/s)
Visibility: 6 or more miles (10+ km)
Ceiling: at least 12,000 feet AGL
Clouds: few clouds at 3100 feet AGL
Weather: no significant weather observed at this time

METAR text: EKCH 191220Z AUTO 22014KT 9999 SCT093/// 21/13 Q1012 TEMPO FEW020CB
Conditions at: EKCH (COPENHAGEN/KASTR, DK) observed 1220 UTC 19 August 2019
Temperature: 21.0°C (70°F)
Dewpoint: 13.0°C (55°F) [RH = 60%]
Pressure (altimeter): 29.88 inches Hg (1012.0 mb)
Winds: from the SW (220 degrees) at 16 MPH (14 knots; 7.2 m/s)
Visibility: 6 or more miles (10+ km)
Ceiling: at least 12,000 feet AGL
Clouds: scattered clouds at 9300 feet AGL
Weather: no significant weather observed at this time

METAR text: EKCH 191150Z AUTO 23015KT 9999 BKN076/// 20/11 Q1011 TEMPO FEW020CB
Conditions at: EKCH (COPENHAGEN/KASTR, DK) observed 1150 UTC 19 August 2019
Temperature: 20.0°C (68°F)
Dewpoint: 11.0°C (52°F) [RH = 56%]
Pressure (altimeter): 29.85 inches Hg (1011.0 mb)
Winds: from the SW (230 degrees) at 17 MPH (15 knots; 7.7 m/s)
Visibility: 6 or more miles (10+ km)
Ceiling: 7600 feet AGL
Clouds: broken clouds at 7600 feet AGL
Weather: no significant weather observed at this time

METAR text: EKCH 191120Z AUTO 22012KT 9999 FEW030/// BKN066/// BKN083/// 20/12 Q1011 TEMPO SHRA SCT020CB
Conditions at: EKCH (COPENHAGEN/KASTR, DK) observed 1120 UTC 19 August 2019
Temperature: 20.0°C (68°F)
Dewpoint: 12.0°C (54°F) [RH = 60%]
Pressure (altimeter): 29.85 inches Hg (1011.0 mb)
Winds: from the SW (220 degrees) at 14 MPH (12 knots; 6.2 m/s)
Visibility: 6 or more miles (10+ km)
Ceiling: 6600 feet AGL
Clouds: few clouds at 3000 feet AGL
broken clouds at 6600 feet AGL
broken clouds at 8300 feet AGL
Weather: no significant weather observed at this time

METAR text: EKCH 191050Z AUTO 23016KT 9999 NCD 20/13 Q1011 TEMPO SHRA SCT020CB
Conditions at: EKCH (COPENHAGEN/KASTR, DK) observed 1050 UTC 19 August 2019
Temperature: 20.0°C (68°F)
Dewpoint: 13.0°C (55°F) [RH = 64%]
Pressure (altimeter): 29.85 inches Hg (1011.0 mb)
Winds: from the SW (230 degrees) at 18 MPH (16 knots; 8.2 m/s)
Visibility: 6 or more miles (10+ km)
Ceiling: at least 12,000 feet AGL
Clouds: sky clear below 12,000 feet AGL
Weather: no significant weather observed at this time

METAR text: EKCH 191020Z AUTO 22016KT 9999 NCD 20/14 Q1011 TEMPO SHRA SCT020CB
Conditions at: EKCH (COPENHAGEN/KASTR, DK) observed 1020 UTC 19 August 2019
Temperature: 20.0°C (68°F)
Dewpoint: 14.0°C (57°F) [RH = 68%]
Pressure (altimeter): 29.85 inches Hg (1011.0 mb)
Winds: from the SW (220 degrees) at 18 MPH (16 knots; 8.2 m/s)
Visibility: 6 or more miles (10+ km)
Ceiling: at least 12,000 feet AGL
Clouds: sky clear below 12,000 feet AGL
Weather: no significant weather observed at this time

METAR text: EKCH 190950Z AUTO 23015KT 9999 NCD 20/14 Q1011 TEMPO SHRA SCT020CB
Conditions at: EKCH (COPENHAGEN/KASTR, DK) observed 0950 UTC 19 August 2019
Temperature: 20.0°C (68°F)
Dewpoint: 14.0°C (57°F) [RH = 68%]
Pressure (altimeter): 29.85 inches Hg (1011.0 mb)
Winds: from the SW (230 degrees) at 17 MPH (15 knots; 7.7 m/s)
Visibility: 6 or more miles (10+ km)
Ceiling: at least 12,000 feet AGL
Clouds: sky clear below 12,000 feet AGL
Weather: no significant weather observed at this time

METAR text: EKCH 190920Z AUTO 23015KT 9999 NCD 20/14 Q1010 NOSIG
Conditions at: EKCH (COPENHAGEN/KASTR, DK) observed 0920 UTC 19 August 2019
Temperature: 20.0°C (68°F)
Dewpoint: 14.0°C (57°F) [RH = 68%]
Pressure (altimeter): 29.82 inches Hg (1010.0 mb)
Winds: from the SW (230 degrees) at 17 MPH (15 knots; 7.7 m/s)
Visibility: 6 or more miles (10+ km)
Ceiling: at least 12,000 feet AGL
Clouds: sky clear below 12,000 feet AGL
Weather: no significant weather observed at this time

METAR text: EKCH 190850Z AUTO 21014KT 9999 BKN017/// 19/15 Q1010 NOSIG
Conditions at: EKCH (COPENHAGEN/KASTR, DK) observed 0850 UTC 19 August 2019
Temperature: 19.0°C (66°F)
Dewpoint: 15.0°C (59°F) [RH = 78%]
Pressure (altimeter): 29.82 inches Hg (1010.0 mb)
Winds: from the SSW (210 degrees) at 16 MPH (14 knots; 7.2 m/s)
Visibility: 6 or more miles (10+ km)
Ceiling: 1700 feet AGL
Clouds: broken clouds at 1700 feet AGL
Weather: no significant weather observed at this time

METAR text: EKCH 190820Z 20012KT 9999 FEW013 SCT024 BKN044 20/16 Q1010 NOSIG
Conditions at: EKCH (COPENHAGEN/KASTR, DK) observed 0820 UTC 19 August 2019
Temperature: 20.0°C (68°F)
Dewpoint: 16.0°C (61°F) [RH = 78%]
Pressure (altimeter): 29.82 inches Hg (1010.0 mb)
Winds: from the SSW (200 degrees) at 14 MPH (12 knots; 6.2 m/s)
Visibility: 6 or more miles (10+ km)
Ceiling: 4400 feet AGL
Clouds: few clouds at 1300 feet AGL
scattered clouds at 2400 feet AGL
broken clouds at 4400 feet AGL
Weather: no significant weather observed at this time

METAR text: EKCH 190750Z AUTO 21011KT 9999 BKN011/// BKN059/// 19/16 Q1010 NOSIG
Conditions at: EKCH (COPENHAGEN/KASTR, DK) observed 0750 UTC 19 August 2019
Temperature: 19.0°C (66°F)
Dewpoint: 16.0°C (61°F) [RH = 83%]
Pressure (altimeter): 29.82 inches Hg (1010.0 mb)
Winds: from the SSW (210 degrees) at 13 MPH (11 knots; 5.7 m/s)
Visibility: 6 or more miles (10+ km)
Ceiling: 1100 feet AGL
Clouds: broken clouds at 1100 feet AGL
broken clouds at 5900 feet AGL
Weather: no significant weather observed at this time

METAR text: EKCH 190720Z AUTO 21011KT 9999 SCT010/// BKN062/// 17/15 Q1010 NOSIG
Conditions at: EKCH (COPENHAGEN/KASTR, DK) observed 0720 UTC 19 August 2019
Temperature: 17.0°C (63°F)
Dewpoint: 15.0°C (59°F) [RH = 88%]
Pressure (altimeter): 29.82 inches Hg (1010.0 mb)
Winds: from the SSW (210 degrees) at 13 MPH (11 knots; 5.7 m/s)
Visibility: 6 or more miles (10+ km)
Ceiling: 6200 feet AGL
Clouds: scattered clouds at 1000 feet AGL
broken clouds at 6200 feet AGL
Weather: no significant weather observed at this time

METAR text: EKCH 190650Z AUTO 22011KT 9999 SCT010/// BKN080/// 17/15 Q1010 NOSIG
Conditions at: EKCH (COPENHAGEN/KASTR, DK) observed 0650 UTC 19 August 2019
Temperature: 17.0°C (63°F)
Dewpoint: 15.0°C (59°F) [RH = 88%]
Pressure (altimeter): 29.82 inches Hg (1010.0 mb)
Winds: from the SW (220 degrees) at 13 MPH (11 knots; 5.7 m/s)
Visibility: 6 or more miles (10+ km)
Ceiling: 8000 feet AGL
Clouds: scattered clouds at 1000 feet AGL
broken clouds at 8000 feet AGL
Weather: no significant weather observed at this time

METAR text: EKCH 190620Z AUTO 21011KT 9999 FEW011/// BKN079/// 17/15 Q1010 NOSIG
Conditions at: EKCH (COPENHAGEN/KASTR, DK) observed 0620 UTC 19 August 2019
Temperature: 17.0°C (63°F)
Dewpoint: 15.0°C (59°F) [RH = 88%]
Pressure (altimeter): 29.82 inches Hg (1010.0 mb)
Winds: from the SSW (210 degrees) at 13 MPH (11 knots; 5.7 m/s)
Visibility: 6 or more miles (10+ km)
Ceiling: 7900 feet AGL
Clouds: few clouds at 1100 feet AGL
broken clouds at 7900 feet AGL
Weather: no significant weather observed at this time

METAR text: EKCH 190550Z AUTO 22009KT 9999 FEW077/// 17/15 Q1010 NOSIG
Conditions at: EKCH (COPENHAGEN/KASTR, DK) observed 0550 UTC 19 August 2019
Temperature: 17.0°C (63°F)
Dewpoint: 15.0°C (59°F) [RH = 88%]
Pressure (altimeter): 29.82 inches Hg (1010.0 mb)
Winds: from the SW (220 degrees) at 10 MPH (9 knots; 4.6 m/s)
Visibility: 6 or more miles (10+ km)
Ceiling: at least 12,000 feet AGL
Clouds: few clouds at 7700 feet AGL
Weather: no significant weather observed at this time

METAR text: EKCH 190520Z AUTO 22007KT 9999 FEW010/// 16/15 Q1010 NOSIG
Conditions at: EKCH (COPENHAGEN/KASTR, DK) observed 0520 UTC 19 August 2019
Temperature: 16.0°C (61°F)
Dewpoint: 15.0°C (59°F) [RH = 94%]
Pressure (altimeter): 29.82 inches Hg (1010.0 mb)
Winds: from the SW (220 degrees) at 8 MPH (7 knots; 3.6 m/s)
Visibility: 6 or more miles (10+ km)
Ceiling: at least 12,000 feet AGL
Clouds: few clouds at 1000 feet AGL
Weather: no significant weather observed at this time

METAR text: EKCH 190450Z AUTO 23006KT 9999 NCD 15/15 Q1009 NOSIG
Conditions at: EKCH (COPENHAGEN/KASTR, DK) observed 0450 UTC 19 August 2019
Temperature: 15.0°C (59°F)
Dewpoint: 15.0°C (59°F) [RH = 100%]
Pressure (altimeter): 29.79 inches Hg (1009.0 mb)
Winds: from the SW (230 degrees) at 7 MPH (6 knots; 3.1 m/s)
Visibility: 6 or more miles (10+ km)
Ceiling: at least 12,000 feet AGL
Clouds: sky clear below 12,000 feet AGL
Weather: no significant weather observed at this time

METAR text: EKCH 190420Z AUTO 22006KT 9999 FEW010/// 15/14 Q1009 NOSIG
Conditions at: EKCH (COPENHAGEN/KASTR, DK) observed 0420 UTC 19 August 2019
Temperature: 15.0°C (59°F)
Dewpoint: 14.0°C (57°F) [RH = 94%]
Pressure (altimeter): 29.79 inches Hg (1009.0 mb)
Winds: from the SW (220 degrees) at 7 MPH (6 knots; 3.1 m/s)
Visibility: 6 or more miles (10+ km)
Ceiling: at least 12,000 feet AGL
Clouds: few clouds at 1000 feet AGL
Weather: no significant weather observed at this time

METAR text: EKCH 190350Z AUTO 23006KT 9999 SCT010/// 15/14 Q1009 NOSIG
Conditions at: EKCH (COPENHAGEN/KASTR, DK) observed 0350 UTC 19 August 2019
Temperature: 15.0°C (59°F)
Dewpoint: 14.0°C (57°F) [RH = 94%]
Pressure (altimeter): 29.79 inches Hg (1009.0 mb)
Winds: from the SW (230 degrees) at 7 MPH (6 knots; 3.1 m/s)
Visibility: 6 or more miles (10+ km)
Ceiling: at least 12,000 feet AGL
Clouds: scattered clouds at 1000 feet AGL
Weather: no significant weather observed at this time

METAR text: EKCH 190320Z AUTO 21006KT 9999 NCD 14/13 Q1009 NOSIG
Conditions at: EKCH (COPENHAGEN/KASTR, DK) observed 0320 UTC 19 August 2019
Temperature: 14.0°C (57°F)
Dewpoint: 13.0°C (55°F) [RH = 94%]
Pressure (altimeter): 29.79 inches Hg (1009.0 mb)
Winds: from the SSW (210 degrees) at 7 MPH (6 knots; 3.1 m/s)
Visibility: 6 or more miles (10+ km)
Ceiling: at least 12,000 feet AGL
Clouds: sky clear below 12,000 feet AGL
Weather: no significant weather observed at this time

METAR text: EKCH 190250Z AUTO 24005KT 9999 NCD 14/13 Q1008 NOSIG
Conditions at: EKCH (COPENHAGEN/KASTR, DK) observed 0250 UTC 19 August 2019
Temperature: 14.0°C (57°F)
Dewpoint: 13.0°C (55°F) [RH = 94%]
Pressure (altimeter): 29.76 inches Hg (1008.0 mb)
Winds: from the WSW (240 degrees) at 6 MPH (5 knots; 2.6 m/s)
Visibility: 6 or more miles (10+ km)
Ceiling: at least 12,000 feet AGL
Clouds: sky clear below 12,000 feet AGL
Weather: no significant weather observed at this time

METAR text: EKCH 190220Z AUTO 25007KT 9999 NCD 14/13 Q1008 NOSIG
Conditions at: EKCH (COPENHAGEN/KASTR, DK) observed 0220 UTC 19 August 2019
Temperature: 14.0°C (57°F)
Dewpoint: 13.0°C (55°F) [RH = 94%]
Pressure (altimeter): 29.76 inches Hg (1008.0 mb)
Winds: from the WSW (250 degrees) at 8 MPH (7 knots; 3.6 m/s)
Visibility: 6 or more miles (10+ km)
Ceiling: at least 12,000 feet AGL
Clouds: sky clear below 12,000 feet AGL
Weather: no significant weather observed at this time

METAR text: EKCH 190150Z AUTO 23008KT 9999 NCD 13/13 Q1008 NOSIG
Conditions at: EKCH (COPENHAGEN/KASTR, DK) observed 0150 UTC 19 August 2019
Temperature: 13.0°C (55°F)
Dewpoint: 13.0°C (55°F) [RH = 100%]
Pressure (altimeter): 29.76 inches Hg (1008.0 mb)
Winds: from the SW (230 degrees) at 9 MPH (8 knots; 4.1 m/s)
Visibility: 6 or more miles (10+ km)
Ceiling: at least 12,000 feet AGL
Clouds: sky clear below 12,000 feet AGL
Weather: no significant weather observed at this time

METAR text: EKCH 190120Z AUTO 22006KT 9999 NCD 13/13 Q1008 NOSIG
Conditions at: EKCH (COPENHAGEN/KASTR, DK) observed 0120 UTC 19 August 2019
Temperature: 13.0°C (55°F)
Dewpoint: 13.0°C (55°F) [RH = 100%]
Pressure (altimeter): 29.76 inches Hg (1008.0 mb)
Winds: from the SW (220 degrees) at 7 MPH (6 knots; 3.1 m/s)
Visibility: 6 or more miles (10+ km)
Ceiling: at least 12,000 feet AGL
Clouds: sky clear below 12,000 feet AGL
Weather: no significant weather observed at this time

METAR text: EKCH 190050Z AUTO 26005KT 9999 NCD 14/13 Q1007 NOSIG
Conditions at: EKCH (COPENHAGEN/KASTR, DK) observed 0050 UTC 19 August 2019
Temperature: 14.0°C (57°F)
Dewpoint: 13.0°C (55°F) [RH = 94%]
Pressure (altimeter): 29.73 inches Hg (1007.0 mb)
Winds: from the W (260 degrees) at 6 MPH (5 knots; 2.6 m/s)
Visibility: 6 or more miles (10+ km)
Ceiling: at least 12,000 feet AGL
Clouds: sky clear below 12,000 feet AGL
Weather: no significant weather observed at this time

METAR text: EKCH 190020Z AUTO 26007KT 9999 NCD 15/14 Q1007 NOSIG
Conditions at: EKCH (COPENHAGEN/KASTR, DK) observed 0020 UTC 19 August 2019
Temperature: 15.0°C (59°F)
Dewpoint: 14.0°C (57°F) [RH = 94%]
Pressure (altimeter): 29.73 inches Hg (1007.0 mb)
Winds: from the W (260 degrees) at 8 MPH (7 knots; 3.6 m/s)
Visibility: 6 or more miles (10+ km)
Ceiling: at least 12,000 feet AGL
Clouds: sky clear below 12,000 feet AGL
Weather: no significant weather observed at this time

METAR text: EKCH 182350Z AUTO 26009KT 9999 NCD 15/14 Q1007 NOSIG
Conditions at: EKCH (COPENHAGEN/KASTR, DK) observed 2350 UTC 18 August 2019
Temperature: 15.0°C (59°F)
Dewpoint: 14.0°C (57°F) [RH = 94%]
Pressure (altimeter): 29.73 inches Hg (1007.0 mb)
Winds: from the W (260 degrees) at 10 MPH (9 knots; 4.6 m/s)
Visibility: 6 or more miles (10+ km)
Ceiling: at least 12,000 feet AGL
Clouds: sky clear below 12,000 feet AGL
Weather: no significant weather observed at this time

METAR text: EKCH 182320Z AUTO 25008KT 9999 NCD 15/14 Q1007 NOSIG
Conditions at: EKCH (COPENHAGEN/KASTR, DK) observed 2320 UTC 18 August 2019
Temperature: 15.0°C (59°F)
Dewpoint: 14.0°C (57°F) [RH = 94%]
Pressure (altimeter): 29.73 inches Hg (1007.0 mb)
Winds: from the WSW (250 degrees) at 9 MPH (8 knots; 4.1 m/s)
Visibility: 6 or more miles (10+ km)
Ceiling: at least 12,000 feet AGL
Clouds: sky clear below 12,000 feet AGL
Weather: no significant weather observed at this time

METAR text: EKCH 182250Z AUTO 25009KT 9999 NCD 15/14 Q1006 NOSIG
Conditions at: EKCH (COPENHAGEN/KASTR, DK) observed 2250 UTC 18 August 2019
Temperature: 15.0°C (59°F)
Dewpoint: 14.0°C (57°F) [RH = 94%]
Pressure (altimeter): 29.70 inches Hg (1006.0 mb)
Winds: from the WSW (250 degrees) at 10 MPH (9 knots; 4.6 m/s)
Visibility: 6 or more miles (10+ km)
Ceiling: at least 12,000 feet AGL
Clouds: sky clear below 12,000 feet AGL
Weather: no significant weather observed at this time

METAR text: EKCH 182220Z AUTO 25010KT 9999 FEW012/// 15/14 Q1006 NOSIG
Conditions at: EKCH (COPENHAGEN/KASTR, DK) observed 2220 UTC 18 August 2019
Temperature: 15.0°C (59°F)
Dewpoint: 14.0°C (57°F) [RH = 94%]
Pressure (altimeter): 29.70 inches Hg (1006.0 mb)
Winds: from the WSW (250 degrees) at 12 MPH (10 knots; 5.1 m/s)
Visibility: 6 or more miles (10+ km)
Ceiling: at least 12,000 feet AGL
Clouds: few clouds at 1200 feet AGL
Weather: no significant weather observed at this time

METAR text: EKCH 182150Z AUTO 24008KT 9999 FEW019/// 15/14 Q1006 NOSIG
Conditions at: EKCH (COPENHAGEN/KASTR, DK) observed 2150 UTC 18 August 2019
Temperature: 15.0°C (59°F)
Dewpoint: 14.0°C (57°F) [RH = 94%]
Pressure (altimeter): 29.70 inches Hg (1006.0 mb)
Winds: from the WSW (240 degrees) at 9 MPH (8 knots; 4.1 m/s)
Visibility: 6 or more miles (10+ km)
Ceiling: at least 12,000 feet AGL
Clouds: few clouds at 1900 feet AGL
Weather: no significant weather observed at this time

METAR text: EKCH 182120Z AUTO 24009KT 9999 NCD 15/14 Q1005 NOSIG
Conditions at: EKCH (COPENHAGEN/KASTR, DK) observed 2120 UTC 18 August 2019
Temperature: 15.0°C (59°F)
Dewpoint: 14.0°C (57°F) [RH = 94%]
Pressure (altimeter): 29.68 inches Hg (1005.0 mb)
Winds: from the WSW (240 degrees) at 10 MPH (9 knots; 4.6 m/s)
Visibility: 6 or more miles (10+ km)
Ceiling: at least 12,000 feet AGL
Clouds: sky clear below 12,000 feet AGL
Weather: no significant weather observed at this time

METAR text: EKCH 182050Z AUTO 25007KT 9999 NCD 15/14 Q1005 NOSIG
Conditions at: EKCH (COPENHAGEN/KASTR, DK) observed 2050 UTC 18 August 2019
Temperature: 15.0°C (59°F)
Dewpoint: 14.0°C (57°F) [RH = 94%]
Pressure (altimeter): 29.68 inches Hg (1005.0 mb)
Winds: from the WSW (250 degrees) at 8 MPH (7 knots; 3.6 m/s)
Visibility: 6 or more miles (10+ km)
Ceiling: at least 12,000 feet AGL
Clouds: sky clear below 12,000 feet AGL
Weather: no significant weather observed at this time

METAR text: EKCH 182020Z AUTO 26007KT 9999 NCD 15/14 Q1005 NOSIG
Conditions at: EKCH (COPENHAGEN/KASTR, DK) observed 2020 UTC 18 August 2019
Temperature: 15.0°C (59°F)
Dewpoint: 14.0°C (57°F) [RH = 94%]
Pressure (altimeter): 29.68 inches Hg (1005.0 mb)
Winds: from the W (260 degrees) at 8 MPH (7 knots; 3.6 m/s)
Visibility: 6 or more miles (10+ km)
Ceiling: at least 12,000 feet AGL
Clouds: sky clear below 12,000 feet AGL
Weather: no significant weather observed at this time

METAR text: EKCH 181950Z AUTO 26008KT 9999 NCD 15/14 Q1005 NOSIG
Conditions at: EKCH (COPENHAGEN/KASTR, DK) observed 1950 UTC 18 August 2019
Temperature: 15.0°C (59°F)
Dewpoint: 14.0°C (57°F) [RH = 94%]
Pressure (altimeter): 29.68 inches Hg (1005.0 mb)
Winds: from the W (260 degrees) at 9 MPH (8 knots; 4.1 m/s)
Visibility: 6 or more miles (10+ km)
Ceiling: at least 12,000 feet AGL
Clouds: sky clear below 12,000 feet AGL
Weather: no significant weather observed at this time

METAR text: EKCH 181920Z 26010KT 230V290 9999 SCT009 15/14 Q1004 TEMPO BKN007
Conditions at: EKCH (COPENHAGEN/KASTR, DK) observed 1920 UTC 18 August 2019
Temperature: 15.0°C (59°F)
Dewpoint: 14.0°C (57°F) [RH = 94%]
Pressure (altimeter): 29.65 inches Hg (1004.0 mb)
Winds: from the W (260 degrees) at 12 MPH (10 knots; 5.1 m/s)
Visibility: 6 or more miles (10+ km)
Ceiling: at least 12,000 feet AGL
Clouds: scattered clouds at 900 feet AGL
Weather: no significant weather observed at this time

METAR text: EKCH 181850Z 25006KT 9999 FEW005 SCT007 BKN011 16/15 Q1004 TEMPO BKN007
Conditions at: EKCH (COPENHAGEN/KASTR, DK) observed 1850 UTC 18 August 2019
Temperature: 16.0°C (61°F)
Dewpoint: 15.0°C (59°F) [RH = 94%]
Pressure (altimeter): 29.65 inches Hg (1004.0 mb)
Winds: from the WSW (250 degrees) at 7 MPH (6 knots; 3.1 m/s)
Visibility: 6 or more miles (10+ km)
Ceiling: 1100 feet AGL
Clouds: few clouds at 500 feet AGL
scattered clouds at 700 feet AGL
broken clouds at 1100 feet AGL
Weather: no significant weather observed at this time

METAR text: EKCH 181820Z 25009KT 7000 FEW008 SCT012 BKN017 16/15 Q1004 TEMPO BKN007
Conditions at: EKCH (COPENHAGEN/KASTR, DK) observed 1820 UTC 18 August 2019
Temperature: 16.0°C (61°F)
Dewpoint: 15.0°C (59°F) [RH = 94%]
Pressure (altimeter): 29.65 inches Hg (1004.0 mb)
Winds: from the WSW (250 degrees) at 10 MPH (9 knots; 4.6 m/s)
Visibility: 4 miles ( 7 km)
Ceiling: 1700 feet AGL
Clouds: few clouds at 800 feet AGL
scattered clouds at 1200 feet AGL
broken clouds at 1700 feet AGL
Weather: no significant weather observed at this time

METAR text: EKCH 181750Z 24008KT 9999 FEW007 SCT012 BKN017 16/15 Q1004 TEMPO BKN007
Conditions at: EKCH (COPENHAGEN/KASTR, DK) observed 1750 UTC 18 August 2019
Temperature: 16.0°C (61°F)
Dewpoint: 15.0°C (59°F) [RH = 94%]
Pressure (altimeter): 29.65 inches Hg (1004.0 mb)
Winds: from the WSW (240 degrees) at 9 MPH (8 knots; 4.1 m/s)
Visibility: 6 or more miles (10+ km)
Ceiling: 1700 feet AGL
Clouds: few clouds at 700 feet AGL
scattered clouds at 1200 feet AGL
broken clouds at 1700 feet AGL
Weather: no significant weather observed at this time

METAR text: EKCH 181720Z 23007KT 9999 FEW007 SCT010 BKN018 16/16 Q1003 TEMPO BKN007
Conditions at: EKCH (COPENHAGEN/KASTR, DK) observed 1720 UTC 18 August 2019
Temperature: 16.0°C (61°F)
Dewpoint: 16.0°C (61°F) [RH = 100%]
Pressure (altimeter): 29.62 inches Hg (1003.0 mb)
Winds: from the SW (230 degrees) at 8 MPH (7 knots; 3.6 m/s)
Visibility: 6 or more miles (10+ km)
Ceiling: 1800 feet AGL
Clouds: few clouds at 700 feet AGL
scattered clouds at 1000 feet AGL
broken clouds at 1800 feet AGL
Weather: no significant weather observed at this time

METAR text: EKCH 181650Z 22007KT 4000 -RA FEW006 SCT012 BKN018 16/16 Q1003 TEMPO 8000 BKN010
Conditions at: EKCH (COPENHAGEN/KASTR, DK) observed 1650 UTC 18 August 2019
Temperature: 16.0°C (61°F)
Dewpoint: 16.0°C (61°F) [RH = 100%]
Pressure (altimeter): 29.62 inches Hg (1003.0 mb)
Winds: from the SW (220 degrees) at 8 MPH (7 knots; 3.6 m/s)
Visibility: 2.49 miles (4.01 km)
Ceiling: 1800 feet AGL
Clouds: few clouds at 600 feet AGL
scattered clouds at 1200 feet AGL
broken clouds at 1800 feet AGL
Weather: -RA  (light rain)

METAR text: EKCH 181620Z 18006KT 9999 -RA SCT006 BKN022 16/15 Q1004 RERA TEMPO BKN010
Conditions at: EKCH (COPENHAGEN/KASTR, DK) observed 1620 UTC 18 August 2019
Temperature: 16.0°C (61°F)
Dewpoint: 15.0°C (59°F) [RH = 94%]
Pressure (altimeter): 29.65 inches Hg (1004.0 mb)
Winds: from the S (180 degrees) at 7 MPH (6 knots; 3.1 m/s)
Visibility: 6 or more miles (10+ km)
Ceiling: 2200 feet AGL
Clouds: scattered clouds at 600 feet AGL
broken clouds at 2200 feet AGL
Weather: -RA  (light rain)

METAR text: EKCH 181550Z 19007KT 4500 SHRA SCT023 BKN030CB BKN033 15/14 Q1004 BECMG 9999 BKN012
Conditions at: EKCH (COPENHAGEN/KASTR, DK) observed 1550 UTC 18 August 2019
Temperature: 15.0°C (59°F)
Dewpoint: 14.0°C (57°F) [RH = 94%]
Pressure (altimeter): 29.65 inches Hg (1004.0 mb)
Winds: from the S (190 degrees) at 8 MPH (7 knots; 3.6 m/s)
Visibility: 2.80 miles (4.51 km)
Ceiling: 3000 feet AGL
Clouds: scattered clouds at 2300 feet AGL
broken clouds at 3000 feet AGL
broken clouds at 3300 feet AGL
Weather: SHRA  (rain showers)

METAR text: EKCH 181520Z 17006KT 6000 SHRA FEW025 BKN030CB BKN048 16/14 Q1003 BECMG BKN012
Conditions at: EKCH (COPENHAGEN/KASTR, DK) observed 1520 UTC 18 August 2019
Temperature: 16.0°C (61°F)
Dewpoint: 14.0°C (57°F) [RH = 88%]
Pressure (altimeter): 29.62 inches Hg (1003.0 mb)
Winds: from the S (170 degrees) at 7 MPH (6 knots; 3.1 m/s)
Visibility: 4 miles ( 6 km)
Ceiling: 3000 feet AGL
Clouds: few clouds at 2500 feet AGL
broken clouds at 3000 feet AGL
broken clouds at 4800 feet AGL
Weather: SHRA  (rain showers)

METAR text: EKCH 181450Z 19010KT 7000 SHRA FEW006 BKN030CB BKN047 17/14 Q1004 BECMG BKN012
Conditions at: EKCH (COPENHAGEN/KASTR, DK) observed 1450 UTC 18 August 2019
Temperature: 17.0°C (63°F)
Dewpoint: 14.0°C (57°F) [RH = 82%]
Pressure (altimeter): 29.65 inches Hg (1004.0 mb)
Winds: from the S (190 degrees) at 12 MPH (10 knots; 5.1 m/s)
Visibility: 4 miles ( 7 km)
Ceiling: 3000 feet AGL
Clouds: few clouds at 600 feet AGL
broken clouds at 3000 feet AGL
broken clouds at 4700 feet AGL
Weather: SHRA  (rain showers)

METAR text: EKCH 181420Z 17010KT 9999 -RA FEW007 SCT010 BKN057 18/17 Q1004 TEMPO BKN010
Conditions at: EKCH (COPENHAGEN/KASTR, DK) observed 1420 UTC 18 August 2019
Temperature: 18.0°C (64°F)
Dewpoint: 17.0°C (63°F) [RH = 94%]
Pressure (altimeter): 29.65 inches Hg (1004.0 mb)
Winds: from the S (170 degrees) at 12 MPH (10 knots; 5.1 m/s)
Visibility: 6 or more miles (10+ km)
Ceiling: 5700 feet AGL
Clouds: few clouds at 700 feet AGL
scattered clouds at 1000 feet AGL
broken clouds at 5700 feet AGL
Weather: -RA  (light rain)

METAR text: EKCH 181350Z 18008KT 9999 -RA FEW007 SCT010 BKN064 18/17 Q1004 BECMG BKN010
Conditions at: EKCH (COPENHAGEN/KASTR, DK) observed 1350 UTC 18 August 2019
Temperature: 18.0°C (64°F)
Dewpoint: 17.0°C (63°F) [RH = 94%]
Pressure (altimeter): 29.65 inches Hg (1004.0 mb)
Winds: from the S (180 degrees) at 9 MPH (8 knots; 4.1 m/s)
Visibility: 6 or more miles (10+ km)
Ceiling: 6400 feet AGL
Clouds: few clouds at 700 feet AGL
scattered clouds at 1000 feet AGL
broken clouds at 6400 feet AGL
Weather: -RA  (light rain)

METAR text: EKCH 181320Z AUTO 16007KT 9999 -RA FEW009/// BKN084/// 19/17 Q1004 TEMPO BKN010
Conditions at: EKCH (COPENHAGEN/KASTR, DK) observed 1320 UTC 18 August 2019
Temperature: 19.0°C (66°F)
Dewpoint: 17.0°C (63°F) [RH = 88%]
Pressure (altimeter): 29.65 inches Hg (1004.0 mb)
Winds: from the SSE (160 degrees) at 8 MPH (7 knots; 3.6 m/s)
Visibility: 6 or more miles (10+ km)
Ceiling: 8400 feet AGL
Clouds: few clouds at 900 feet AGL
broken clouds at 8400 feet AGL
Weather: -RA  (light rain)

METAR text: EKCH 181250Z AUTO 17006KT 9999 FEW009/// BKN080/// 19/17 Q1004 TEMPO BKN010
Conditions at: EKCH (COPENHAGEN/KASTR, DK) observed 1250 UTC 18 August 2019
Temperature: 19.0°C (66°F)
Dewpoint: 17.0°C (63°F) [RH = 88%]
Pressure (altimeter): 29.65 inches Hg (1004.0 mb)
Winds: from the S (170 degrees) at 7 MPH (6 knots; 3.1 m/s)
Visibility: 6 or more miles (10+ km)
Ceiling: 8000 feet AGL
Clouds: few clouds at 900 feet AGL
broken clouds at 8000 feet AGL
Weather: no significant weather observed at this time

METAR text: EKCH 181220Z AUTO 16008KT 9999 FEW008/// BKN100/// 19/17 Q1004 TEMPO BKN010
Conditions at: EKCH (COPENHAGEN/KASTR, DK) observed 1220 UTC 18 August 2019
Temperature: 19.0°C (66°F)
Dewpoint: 17.0°C (63°F) [RH = 88%]
Pressure (altimeter): 29.65 inches Hg (1004.0 mb)
Winds: from the SSE (160 degrees) at 9 MPH (8 knots; 4.1 m/s)
Visibility: 6 or more miles (10+ km)
Ceiling: 10000 feet AGL
Clouds: few clouds at 800 feet AGL
broken clouds at 10000 feet AGL
Weather: no significant weather observed at this time

METAR text: EKCH 181150Z AUTO 16008KT 9999 FEW016/// BKN100/// 19/16 Q1005 NOSIG
Conditions at: EKCH (COPENHAGEN/KASTR, DK) observed 1150 UTC 18 August 2019
Temperature: 19.0°C (66°F)
Dewpoint: 16.0°C (61°F) [RH = 83%]
Pressure (altimeter): 29.68 inches Hg (1005.0 mb)
Winds: from the SSE (160 degrees) at 9 MPH (8 knots; 4.1 m/s)
Visibility: 6 or more miles (10+ km)
Ceiling: 10000 feet AGL
Clouds: few clouds at 1600 feet AGL
broken clouds at 10000 feet AGL
Weather: no significant weather observed at this time

METAR text: EKCH 181120Z AUTO 15006KT 9999 FEW008/// SCT130/// 19/17 Q1005 NOSIG
Conditions at: EKCH (COPENHAGEN/KASTR, DK) observed 1120 UTC 18 August 2019
Temperature: 19.0°C (66°F)
Dewpoint: 17.0°C (63°F) [RH = 88%]
Pressure (altimeter): 29.68 inches Hg (1005.0 mb)
Winds: from the SSE (150 degrees) at 7 MPH (6 knots; 3.1 m/s)
Visibility: 6 or more miles (10+ km)
Ceiling: at least 12,000 feet AGL
Clouds: few clouds at 800 feet AGL
scattered clouds at 13000 feet AGL
Weather: no significant weather observed at this time

METAR text: EKCH 181050Z 15003KT 9999 FEW008 BKN012 19/16 Q1004 BECMG SCT012
Conditions at: EKCH (COPENHAGEN/KASTR, DK) observed 1050 UTC 18 August 2019
Temperature: 19.0°C (66°F)
Dewpoint: 16.0°C (61°F) [RH = 83%]
Pressure (altimeter): 29.65 inches Hg (1004.0 mb)
Winds: from the SSE (150 degrees) at 3 MPH (3 knots; 1.5 m/s)
Visibility: 6 or more miles (10+ km)
Ceiling: 1200 feet AGL
Clouds: few clouds at 800 feet AGL
broken clouds at 1200 feet AGL
Weather: no significant weather observed at this time

METAR text: EKCH 181020Z AUTO 13004KT 9999 SCT011/// SCT100/// 18/16 Q1005 NOSIG
Conditions at: EKCH (COPENHAGEN/KASTR, DK) observed 1020 UTC 18 August 2019
Temperature: 18.0°C (64°F)
Dewpoint: 16.0°C (61°F) [RH = 88%]
Pressure (altimeter): 29.68 inches Hg (1005.0 mb)
Winds: from the SE (130 degrees) at 5 MPH (4 knots; 2.1 m/s)
Visibility: 6 or more miles (10+ km)
Ceiling: at least 12,000 feet AGL
Clouds: scattered clouds at 1100 feet AGL
scattered clouds at 10000 feet AGL
Weather: no significant weather observed at this time

METAR text: EKCH 180950Z AUTO 20003KT 9999 SCT013/// BKN100/// 18/16 Q1005 NOSIG
Conditions at: EKCH (COPENHAGEN/KASTR, DK) observed 0950 UTC 18 August 2019
Temperature: 18.0°C (64°F)
Dewpoint: 16.0°C (61°F) [RH = 88%]
Pressure (altimeter): 29.68 inches Hg (1005.0 mb)
Winds: from the SSW (200 degrees) at 3 MPH (3 knots; 1.5 m/s)
Visibility: 6 or more miles (10+ km)
Ceiling: 10000 feet AGL
Clouds: scattered clouds at 1300 feet AGL
broken clouds at 10000 feet AGL
Weather: no significant weather observed at this time

METAR text: EKCH 180920Z AUTO 18005KT 9999 SCT012/// BKN031/// BKN085/// 18/16 Q1005 NOSIG
Conditions at: EKCH (COPENHAGEN/KASTR, DK) observed 0920 UTC 18 August 2019
Temperature: 18.0°C (64°F)
Dewpoint: 16.0°C (61°F) [RH = 88%]
Pressure (altimeter): 29.68 inches Hg (1005.0 mb)
Winds: from the S (180 degrees) at 6 MPH (5 knots; 2.6 m/s)
Visibility: 6 or more miles (10+ km)
Ceiling: 3100 feet AGL
Clouds: scattered clouds at 1200 feet AGL
broken clouds at 3100 feet AGL
broken clouds at 8500 feet AGL
Weather: no significant weather observed at this time

METAR text: EKCH 180850Z AUTO 23003KT 9999 -SHRA FEW023/// 18/15 Q1005 NOSIG
Conditions at: EKCH (COPENHAGEN/KASTR, DK) observed 0850 UTC 18 August 2019
Temperature: 18.0°C (64°F)
Dewpoint: 15.0°C (59°F) [RH = 83%]
Pressure (altimeter): 29.68 inches Hg (1005.0 mb)
Winds: from the SW (230 degrees) at 3 MPH (3 knots; 1.5 m/s)
Visibility: 6 or more miles (10+ km)
Ceiling: at least 12,000 feet AGL
Clouds: few clouds at 2300 feet AGL
Weather: -SHRA  (light rain showers)

METAR text: EKCH 180820Z AUTO 23003KT 9999 FEW026/// 18/15 Q1005 NOSIG
Conditions at: EKCH (COPENHAGEN/KASTR, DK) observed 0820 UTC 18 August 2019
Temperature: 18.0°C (64°F)
Dewpoint: 15.0°C (59°F) [RH = 83%]
Pressure (altimeter): 29.68 inches Hg (1005.0 mb)
Winds: from the SW (230 degrees) at 3 MPH (3 knots; 1.5 m/s)
Visibility: 6 or more miles (10+ km)
Ceiling: at least 12,000 feet AGL
Clouds: few clouds at 2600 feet AGL
Weather: no significant weather observed at this time

METAR text: EKCH 180750Z AUTO 22003KT 9999 NCD 18/15 Q1005 NOSIG
Conditions at: EKCH (COPENHAGEN/KASTR, DK) observed 0750 UTC 18 August 2019
Temperature: 18.0°C (64°F)
Dewpoint: 15.0°C (59°F) [RH = 83%]
Pressure (altimeter): 29.68 inches Hg (1005.0 mb)
Winds: from the SW (220 degrees) at 3 MPH (3 knots; 1.5 m/s)
Visibility: 6 or more miles (10+ km)
Ceiling: at least 12,000 feet AGL
Clouds: sky clear below 12,000 feet AGL
Weather: no significant weather observed at this time

METAR text: EKCH 180720Z AUTO 24004KT 210V270 9999 NCD 18/15 Q1005 NOSIG
Conditions at: EKCH (COPENHAGEN/KASTR, DK) observed 0720 UTC 18 August 2019
Temperature: 18.0°C (64°F)
Dewpoint: 15.0°C (59°F) [RH = 83%]
Pressure (altimeter): 29.68 inches Hg (1005.0 mb)
Winds: from the WSW (240 degrees) at 5 MPH (4 knots; 2.1 m/s)
Visibility: 6 or more miles (10+ km)
Ceiling: at least 12,000 feet AGL
Clouds: sky clear below 12,000 feet AGL
Weather: no significant weather observed at this time

METAR text: EKCH 180650Z AUTO 23007KT 9999 FEW013/// 17/15 Q1005 NOSIG
Conditions at: EKCH (COPENHAGEN/KASTR, DK) observed 0650 UTC 18 August 2019
Temperature: 17.0°C (63°F)
Dewpoint: 15.0°C (59°F) [RH = 88%]
Pressure (altimeter): 29.68 inches Hg (1005.0 mb)
Winds: from the SW (230 degrees) at 8 MPH (7 knots; 3.6 m/s)
Visibility: 6 or more miles (10+ km)
Ceiling: at least 12,000 feet AGL
Clouds: few clouds at 1300 feet AGL
Weather: no significant weather observed at this time

METAR text: EKCH 180620Z AUTO 24006KT 9999 SCT009/// 18/16 Q1005 NOSIG
Conditions at: EKCH (COPENHAGEN/KASTR, DK) observed 0620 UTC 18 August 2019
Temperature: 18.0°C (64°F)
Dewpoint: 16.0°C (61°F) [RH = 88%]
Pressure (altimeter): 29.68 inches Hg (1005.0 mb)
Winds: from the WSW (240 degrees) at 7 MPH (6 knots; 3.1 m/s)
Visibility: 6 or more miles (10+ km)
Ceiling: at least 12,000 feet AGL
Clouds: scattered clouds at 900 feet AGL
Weather: no significant weather observed at this time

Forecast for: EKCH (COPENHAGEN/KASTR, DK)
Text: TAF EKCH 191658Z 1918/2018 24010KT 9999 SCT030
Forecast period: 1800 UTC 19 August 2019 to 1800 UTC 20 August 2019
Forecast type: FROM: standard forecast or significant change
Winds: from the WSW (240 degrees) at 12 MPH (10 knots; 5.1 m/s)
Visibility: 6 or more miles 10+ km)
Ceiling: at least 12,000 feet AGL
Clouds: scattered clouds at 3000 feet AGL
Weather: no significant weather forecast for this period
Text: TEMPO 1918/1919 SHRA FEW020CB
Forecast period: 1800 to 1900 UTC 19 August 2019
Forecast type: TEMPORARY: The following changes expected for less than half the time period
Visibility: missing
Ceiling: at least 12,000 feet AGL
Clouds: few clouds at 2000 feet AGL
Weather: SHRA  (rain showers)
Text: TEMPO 2009/2016 FEW020CB
Forecast period: 0900 to 1600 UTC 20 August 2019
Forecast type: TEMPORARY: The following changes expected for less than half the time period
Visibility: missing
Ceiling: at least 12,000 feet AGL
Clouds: few clouds at 2000 feet AGL
Weather: no significant weather forecast for this period